首页
METAR-TAF:

METAR-TAF

机场 :

马塔维里国际机场

復活節島, 智利

纬度: 27-09S, 经度: 109-25W, 海拔: 51米

当前天气观测

该预报发布于35分钟前的10:00 UTC
风速5节,风向东南
温度 20°C
湿度 100%
气压 1015 hPa
能見度: 8000

METAR: SCIP 091000Z AUTO 13005KT 8000 BKN056/// BKN070/// OVC100/// 20/20 Q1015 NOSIG

时间: 04:35 (10:35 UTC)


TAF: 丢失

超过4000个机场的气象观测和天气预报(METAR&TAF报告)。

可查询的气象台以黄色和红色小点在地图上表示。

将鼠标移到小点上方,可查看气象台名称。

然后点击查看天气观测和预报。

如需切换地图:点击带黑十字的绿色按钮放大地图;点击带横线的绿色按钮缩小地图;或者点击绿色箭头查看邻近地区的地图。


METAR-TAF: